Time;durP1;ratioP1;P1;durP2;ratioP2;P2;SDS_P1;SDS_P2;PMS_P1;PMS_P2;Temp;Humidity;BMP_temperature;BMP_pressure;BME280_temperature;BME280_humidity;BME280_pressure;Samples;Min_cycle;Max_cycle;Signal;HPM_P1;HPM_P2
2023/12/07 00:00:18;;;;;;;0.70;0.70;;;;;;;1.33;94.27;97142.19;29395;231;63004;-53
2023/12/07 00:00:49;;;;;;;0.68;0.68;;;;;;;1.32;94.54;97137.88;29395;310;63009;-52
2023/12/07 00:01:21;;;;;;;0.60;0.60;;;;;;;1.32;94.52;97139.75;29395;276;63004;-53
2023/12/07 00:01:52;;;;;;;0.60;0.60;;;;;;;1.30;94.69;97134.63;29394;266;64009;-53
2023/12/07 00:02:23;;;;;;;0.60;0.60;;;;;;;1.30;94.97;97134.63;29395;207;63004;-52
2023/12/07 00:02:55;;;;;;;0.60;0.60;;;;;;;1.30;94.90;97134.63;29395;320;63008;-53
2023/12/07 00:03:26;;;;;;;0.60;0.60;;;;;;;1.28;94.99;97127.87;29394;202;64004;-52
2023/12/07 00:03:57;;;;;;;0.62;0.62;;;;;;;1.28;95.19;97142.06;29395;323;63009;-52
2023/12/07 00:04:28;;;;;;;0.60;0.60;;;;;;;1.26;95.45;97138.78;29395;318;63005;-52
2023/12/07 00:04:59;;;;;;;0.60;0.60;;;;;;;1.25;95.56;97137.16;29395;235;63009;-53
2023/12/07 00:05:30;;;;;;;0.70;0.70;;;;;;;1.25;95.86;97136.34;29395;200;63005;-55
2023/12/07 00:06:05;;;;;;;0.60;0.60;;;;;;;1.23;96.00;97139.25;29395;406;63009;-52
2023/12/07 00:06:36;;;;;;;0.70;0.70;;;;;;;1.23;95.90;97143.78;29395;218;63005;-53
2023/12/07 00:07:08;;;;;;;0.70;0.70;;;;;;;1.21;96.14;97141.31;29394;285;64009;-53
2023/12/07 00:07:39;;;;;;;0.60;0.60;;;;;;;1.20;95.96;97145.03;29395;262;63005;-52
2023/12/07 00:08:11;;;;;;;0.60;0.60;;;;;;;1.20;96.00;97133.53;29395;229;63009;-53
2023/12/07 00:08:42;;;;;;;0.60;0.60;;;;;;;1.19;96.09;97138.06;29395;274;63004;-53
2023/12/07 00:09:13;;;;;;;0.70;0.70;;;;;;;1.19;95.87;97138.06;29395;322;63009;-53
2023/12/07 00:09:44;;;;;;;0.60;0.60;;;;;;;1.19;96.22;97139.91;29395;232;63004;-53
2023/12/07 00:10:16;;;;;;;0.70;0.70;;;;;;;1.20;96.39;97145.03;29395;196;63008;-53
2023/12/07 00:10:47;;;;;;;0.70;0.70;;;;;;;1.23;96.55;97143.78;29395;197;63004;-53
2023/12/07 00:11:19;;;;;;;0.70;0.70;;;;;;;1.23;96.12;97144.59;29395;360;63009;-52
2023/12/07 00:11:50;;;;;;;0.60;0.60;;;;;;;1.24;95.78;97151.56;29395;320;63007;-52
2023/12/07 00:12:21;;;;;;;0.70;0.70;;;;;;;1.24;95.41;97143.53;29394;220;64009;-53
2023/12/07 00:12:55;;;;;;;0.70;0.70;;;;;;;1.23;95.53;97147.25;29395;237;63005;-53
2023/12/07 00:13:27;;;;;;;0.70;0.70;;;;;;;1.24;95.42;97142.72;29395;205;63009;-53
2023/12/07 00:13:58;;;;;;;0.60;0.60;;;;;;;1.24;95.43;97140.06;29395;363;63005;-53
2023/12/07 00:14:29;;;;;;;0.60;0.60;;;;;;;1.23;95.17;97144.59;29395;202;63009;-52
2023/12/07 00:15:00;;;;;;;0.60;0.60;;;;;;;1.24;95.07;97143.53;29394;226;64005;-52
2023/12/07 00:15:31;;;;;;;0.70;0.70;;;;;;;1.25;95.21;97142.50;29395;207;63023;-53
2023/12/07 00:16:04;;;;;;;0.70;0.70;;;;;;;1.25;95.06;97147.84;29395;205;63004;-52
2023/12/07 00:16:35;;;;;;;0.60;0.60;;;;;;;1.28;94.84;97142.06;29395;200;63009;-54
2023/12/07 00:17:09;;;;;;;0.70;0.70;;;;;;;1.29;94.17;97143.69;29395;218;63010;-52
2023/12/07 00:17:40;;;;;;;0.70;0.70;;;;;;;1.29;93.88;97154.38;29395;246;63009;-53
2023/12/07 00:18:13;;;;;;;0.60;0.60;;;;;;;1.28;93.68;97144.72;29394;219;64004;-53
2023/12/07 00:18:44;;;;;;;0.70;0.70;;;;;;;1.27;93.81;97145.78;29395;204;63009;-52
2023/12/07 00:19:15;;;;;;;0.60;0.60;;;;;;;1.28;94.02;97146.59;29395;242;63005;-53
2023/12/07 00:19:50;;;;;;;0.60;0.60;;;;;;;1.27;93.90;97145.78;29395;221;63009;-53
2023/12/07 00:20:21;;;;;;;1.00;1.00;;;;;;;1.27;94.25;97140.41;29395;214;63005;-54
2023/12/07 00:20:52;;;;;;;0.60;0.60;;;;;;;1.28;94.10;97142.06;29395;207;63009;-53
2023/12/07 00:21:23;;;;;;;0.60;0.60;;;;;;;1.31;94.05;97135.44;29395;331;63005;-53
2023/12/07 00:21:55;;;;;;;0.60;0.60;;;;;;;1.33;94.00;97136.84;29395;212;63009;-52
2023/12/07 00:22:28;;;;;;;0.60;0.60;;;;;;;1.32;93.41;97148.56;29395;210;63005;-53
2023/12/07 00:22:59;;;;;;;0.60;0.60;;;;;;;1.32;93.00;97145.91;29395;274;63009;-52
2023/12/07 00:23:31;;;;;;;0.70;0.70;;;;;;;1.32;93.11;97137.88;29394;196;64004;-52
2023/12/07 00:24:03;;;;;;;0.60;0.60;;;;;;;1.32;93.30;97143.22;29394;268;64025;-52
2023/12/07 00:24:34;;;;;;;0.60;0.60;;;;;;;1.33;93.39;97138.69;29395;202;63004;-54
2023/12/07 00:25:07;;;;;;;0.60;0.60;;;;;;;1.36;93.13;97143.59;29394;199;64009;-53
2023/12/07 00:25:38;;;;;;;0.60;0.60;;;;;;;1.33;92.28;97144.88;29395;198;63004;-52
2023/12/07 00:26:10;;;;;;;0.60;0.60;;;;;;;1.36;92.47;97140.09;29395;238;63008;-52
2023/12/07 00:26:42;;;;;;;0.60;0.60;;;;;;;1.38;92.70;97143.37;29395;225;63005;-54
2023/12/07 00:27:14;;;;;;;0.60;0.60;;;;;;;1.42;91.57;97148.00;29395;282;63009;-52
2023/12/07 00:27:49;;;;;;;0.60;0.60;;;;;;;1.51;90.49;97143.16;29395;216;63005;-53
2023/12/07 00:28:20;;;;;;;0.60;0.60;;;;;;;1.51;89.84;97140.47;29395;211;63005;-53
2023/12/07 00:28:52;;;;;;;0.60;0.60;;;;;;;1.51;89.83;97143.16;29395;203;63005;-53
2023/12/07 00:29:23;;;;;;;0.60;0.60;;;;;;;1.50;89.87;97138.84;29395;329;63009;-53
2023/12/07 00:29:54;;;;;;;0.60;0.60;;;;;;;1.49;89.96;97142.56;29395;197;63007;-53
2023/12/07 00:30:25;;;;;;;0.60;0.60;;;;;;;1.48;90.48;97143.59;29394;207;64009;-53
2023/12/07 00:30:57;;;;;;;0.60;0.60;;;;;;;1.48;90.61;97146.28;29395;218;63004;-52
2023/12/07 00:31:29;;;;;;;0.60;0.60;;;;;;;1.47;90.86;97148.13;29395;230;63009;-52
2023/12/07 00:32:01;;;;;;;0.60;0.60;;;;;;;1.49;90.64;97147.91;29395;205;63000;-53
2023/12/07 00:32:32;;;;;;;0.65;0.65;;;;;;;1.50;90.73;97147.69;29395;293;63009;-52
2023/12/07 00:33:04;;;;;;;0.60;0.60;;;;;;;1.53;90.36;97157.09;29395;226;63004;-69
2023/12/07 00:33:35;;;;;;;0.60;0.60;;;;;;;1.51;90.36;97151.97;29395;199;63008;-52
2023/12/07 00:34:06;;;;;;;0.60;0.60;;;;;;;1.50;90.60;97152.22;29395;260;63005;-53
2023/12/07 00:34:38;;;;;;;0.60;0.60;;;;;;;1.50;90.40;97152.22;29395;276;63009;-52
2023/12/07 00:35:10;;;;;;;7.00;6.70;;;;;;;1.49;90.69;97147.91;29395;239;63005;-52
2023/12/07 00:35:41;;;;;;;0.60;0.60;;;;;;;1.48;90.77;97156.97;29394;200;64009;-52
2023/12/07 00:36:12;;;;;;;0.60;0.60;;;;;;;1.46;90.93;97149.19;29395;213;63005;-53
2023/12/07 00:36:44;;;;;;;0.60;0.60;;;;;;;1.45;91.28;97150.22;29395;300;63026;-54
2023/12/07 00:37:15;;;;;;;0.60;0.60;;;;;;;1.45;91.41;97152.91;29395;259;63005;-53
2023/12/07 00:37:46;;;;;;;0.70;0.70;;;;;;;1.46;91.78;97153.72;29395;330;63009;-53
2023/12/07 00:38:18;;;;;;;0.60;0.60;;;;;;;1.46;91.84;97153.72;29395;218;63004;-68
2023/12/07 00:38:50;;;;;;;0.60;0.60;;;;;;;1.49;91.87;97158.59;29394;256;64009;-52
2023/12/07 00:39:21;;;;;;;0.70;0.70;;;;;;;1.49;91.13;97158.59;29395;215;63014;-53
2023/12/07 00:39:52;;;;;;;0.70;0.70;;;;;;;1.49;90.55;97158.59;29396;219;63009;-52
2023/12/07 00:40:24;;;;;;;0.60;0.60;;;;;;;1.50;91.00;97154.88;29396;229;63004;-53
2023/12/07 00:40:55;;;;;;;0.70;0.70;;;;;;;1.50;90.58;97157.56;29396;225;63008;-53
2023/12/07 00:41:26;;;;;;;0.70;0.70;;;;;;;1.50;90.58;97154.88;29396;216;63005;-52
2023/12/07 00:41:57;;;;;;;0.60;0.60;;;;;;;1.48;90.54;97152.44;29396;209;63009;-52
2023/12/07 00:42:29;;;;;;;0.60;0.60;;;;;;;1.46;90.36;97159.06;29396;233;63005;-53
2023/12/07 00:43:00;;;;;;;0.70;0.70;;;;;;;1.43;90.15;97149.63;29396;232;63009;-53
2023/12/07 00:43:32;;;;;;;0.70;0.70;;;;;;;1.42;90.75;97152.53;29396;306;63005;-53
2023/12/07 00:44:03;;;;;;;0.70;0.70;;;;;;;1.39;90.90;97159.16;29395;202;64009;-52
2023/12/07 00:44:40;;;;;;;0.60;0.60;;;;;;;1.39;91.13;97153.81;29396;304;63005;-52
2023/12/07 00:45:13;;;;;;;0.60;0.60;;;;;;;1.39;91.21;97151.13;29396;197;63009;-53
2023/12/07 00:45:44;;;;;;;0.60;0.60;;;;;;;1.41;91.46;97153.56;29396;227;63004;-52
2023/12/07 00:46:15;;;;;;;0.70;0.70;;;;;;;1.42;91.23;97152.53;29396;196;63009;-53
2023/12/07 00:46:46;;;;;;;0.70;0.70;;;;;;;1.40;91.23;97160.78;29396;202;63004;-52
2023/12/07 00:47:18;;;;;;;0.60;0.60;;;;;;;1.39;91.49;97153.81;29396;239;63008;-53
2023/12/07 00:47:49;;;;;;;0.70;0.70;;;;;;;1.40;91.65;97154.62;29396;202;63011;-53
2023/12/07 00:48:20;;;;;;;0.60;0.60;;;;;;;1.45;91.05;97157.44;29396;211;63008;-53
2023/12/07 00:48:51;;;;;;;0.75;0.75;;;;;;;1.47;90.40;97161.50;29396;212;63005;-53
2023/12/07 00:49:23;;;;;;;0.60;0.60;;;;;;;1.48;90.22;97156.97;29395;203;64009;-69
2023/12/07 00:49:54;;;;;;;0.60;0.60;;;;;;;1.51;89.82;97151.16;29396;210;63005;-52
2023/12/07 00:50:26;;;;;;;0.65;0.65;;;;;;;1.51;89.49;97157.34;29396;226;63009;-53
2023/12/07 00:50:58;;;;;;;0.60;0.60;;;;;;;1.51;89.32;97156.53;29396;348;63005;-52
2023/12/07 00:51:29;;;;;;;0.60;0.60;;;;;;;1.51;89.23;97156.53;29396;196;63009;-53
2023/12/07 00:52:00;;;;;;;0.60;0.60;;;;;;;1.51;89.48;97161.88;29396;222;63005;-53
2023/12/07 00:52:32;;;;;;;0.60;0.60;;;;;;;1.49;88.59;97159.41;29396;221;63009;-52
2023/12/07 00:53:04;;;;;;;0.60;0.60;;;;;;;1.48;88.58;97151.63;29396;223;63004;-53
2023/12/07 00:53:36;;;;;;;0.60;0.60;;;;;;;1.46;88.95;97157.19;29396;213;63009;-52
2023/12/07 00:54:07;;;;;;;0.70;0.70;;;;;;;1.48;89.25;97156.97;29396;202;63000;-53
2023/12/07 00:54:39;;;;;;;0.65;0.65;;;;;;;1.50;89.73;97154.88;29395;250;64009;-54
2023/12/07 00:55:10;;;;;;;0.60;0.60;;;;;;;1.54;88.22;97156.06;29396;204;63004;-52
2023/12/07 00:55:41;;;;;;;0.60;0.60;;;;;;;1.57;88.38;97161.78;29395;285;64009;-53
2023/12/07 00:56:14;;;;;;;0.60;0.60;;;;;;;1.59;88.18;97158.87;29396;203;63005;-53
2023/12/07 00:56:45;;;;;;;0.60;0.60;;;;;;;1.58;88.48;97152.72;29396;217;63009;-52
2023/12/07 00:57:17;;;;;;;0.60;0.60;;;;;;;1.56;88.15;97156.66;29396;198;63005;-52
2023/12/07 00:57:48;;;;;;;0.60;0.60;;;;;;;1.53;88.18;97159.78;29396;204;63009;-52
2023/12/07 00:58:19;;;;;;;0.60;0.60;;;;;;;1.49;88.77;97154.06;29396;212;63005;-52
2023/12/07 00:58:50;;;;;;;0.60;0.60;;;;;;;1.48;88.94;97162.31;29396;206;63009;-53
2023/12/07 00:59:22;;;;;;;0.60;0.60;;;;;;;1.48;89.38;97156.97;29396;244;63005;-53
2023/12/07 00:59:53;;;;;;;0.60;0.60;;;;;;;1.48;89.35;97162.31;29396;214;63009;-53
2023/12/07 01:00:24;;;;;;;0.60;0.60;;;;;;;1.45;89.74;97154.75;29396;280;63004;-51
2023/12/07 01:00:55;;;;;;;0.60;0.60;;;;;;;1.42;90.12;97155.22;29395;211;64009;-53
2023/12/07 01:01:28;;;;;;;0.60;0.60;;;;;;;1.41;89.94;97156.25;29395;347;64004;-53
2023/12/07 01:02:06;;;;;;;0.60;0.60;;;;;;;1.38;89.65;97156.72;29396;264;63013;-52
2023/12/07 01:02:37;;;;;;;0.60;0.60;;;;;;;1.36;90.03;97159.63;29396;269;63004;-52
2023/12/07 01:03:09;;;;;;;0.60;0.60;;;;;;;1.34;89.86;97157.19;29396;237;63009;-52
2023/12/07 01:03:40;;;;;;;2.25;2.17;;;;;;;1.37;90.47;97155.09;29396;366;63005;-53
2023/12/07 01:04:11;;;;;;;0.60;0.60;;;;;;;1.39;90.42;97158.37;29396;235;63009;-72
2023/12/07 01:04:43;;;;;;;0.60;0.60;;;;;;;1.39;90.44;97164.50;29396;203;63005;-53
2023/12/07 01:05:15;;;;;;;0.60;0.60;;;;;;;1.40;90.06;97159.97;29396;200;63009;-70
2023/12/07 01:05:46;;;;;;;0.60;0.60;;;;;;;1.39;89.96;97158.37;29396;272;63005;-53
2023/12/07 01:06:17;;;;;;;0.60;0.60;;;;;;;1.38;90.11;97162.91;29395;203;64009;-53
2023/12/07 01:06:49;;;;;;;0.70;0.70;;;;;;;1.39;90.23;97158.37;29396;221;63005;-53
2023/12/07 01:07:21;;;;;;;0.60;0.60;;;;;;;1.40;90.23;97165.31;29396;208;63009;-53
2023/12/07 01:07:52;;;;;;;0.68;0.68;;;;;;;1.41;90.16;97161.59;29396;258;63018;-53
2023/12/07 01:08:23;;;;;;;0.60;0.60;;;;;;;1.40;90.27;97159.97;29396;207;63009;-53
2023/12/07 01:08:54;;;;;;;0.60;0.60;;;;;;;1.39;90.33;97156.47;29396;202;63004;-52
2023/12/07 01:09:26;;;;;;;0.60;0.60;;;;;;;1.41;90.32;97164.28;29396;210;63009;-53
2023/12/07 01:09:58;;;;;;;0.60;0.60;;;;;;;1.41;90.19;97167.75;29396;224;63009;-52
2023/12/07 01:10:29;;;;;;;0.60;0.60;;;;;;;1.41;89.93;97161.59;29396;262;63015;-53
2023/12/07 01:11:00;;;;;;;0.80;0.80;;;;;;;1.41;89.98;97156.25;29396;230;63005;-52
2023/12/07 01:11:31;;;;;;;0.60;0.60;;;;;;;1.40;90.15;97162.62;29395;269;64009;-52
2023/12/07 01:12:03;;;;;;;0.60;0.60;;;;;;;1.40;89.97;97163.47;29396;213;63005;-52
2023/12/07 01:12:35;;;;;;;0.60;0.60;;;;;;;1.40;89.75;97165.31;29396;243;63014;-53
2023/12/07 01:13:07;;;;;;;0.60;0.60;;;;;;;1.39;89.60;97169.06;29396;281;63005;-70
2023/12/07 01:13:38;;;;;;;0.60;0.60;;;;;;;1.38;89.84;97172.78;29396;230;63009;-52
2023/12/07 01:14:11;;;;;;;0.60;0.60;;;;;;;1.37;90.22;97171.97;29396;202;63005;-52
2023/12/07 01:14:42;;;;;;;0.62;0.62;;;;;;;1.37;90.29;97174.63;29396;222;63009;-53
2023/12/07 01:15:13;;;;;;;0.60;0.60;;;;;;;1.36;89.35;97167.66;29396;210;63004;-53
2023/12/07 01:15:44;;;;;;;0.62;0.62;;;;;;;1.34;88.98;97167.88;29396;295;63009;-53
2023/12/07 01:16:17;;;;;;;0.68;0.68;;;;;;;1.33;89.16;97170.78;29396;197;63004;-53
2023/12/07 01:16:51;;;;;;;0.60;0.60;;;;;;;1.32;89.42;97169.16;29395;202;64009;-53
2023/12/07 01:17:22;;;;;;;0.60;0.60;;;;;;;1.34;89.80;97177.75;29396;204;63004;-53
2023/12/07 01:17:53;;;;;;;0.62;0.62;;;;;;;1.33;89.73;97170.78;29396;290;63008;-53
2023/12/07 01:18:25;;;;;;;0.60;0.60;;;;;;;1.32;90.05;97164.63;29396;203;63005;-53
2023/12/07 01:18:57;;;;;;;0.70;0.70;;;;;;;1.30;89.76;97172.03;29396;202;63009;-53
2023/12/07 01:19:31;;;;;;;0.60;0.60;;;;;;;1.29;89.84;97170.41;29396;221;63005;-53
2023/12/07 01:20:03;;;;;;;0.60;0.60;;;;;;;1.27;90.56;97177.84;29396;240;63009;-52
2023/12/07 01:20:35;;;;;;;2.22;2.15;;;;;;;1.27;90.41;97172.50;29396;232;63011;-53
2023/12/07 01:21:06;;;;;;;0.68;0.68;;;;;;;1.27;90.58;97172.50;29395;199;64009;-52
2023/12/07 01:21:37;;;;;;;0.70;0.70;;;;;;;1.26;90.50;97165.53;29396;272;63005;-54
2023/12/07 01:22:09;;;;;;;0.68;0.68;;;;;;;1.26;90.81;97175.41;29395;228;64009;-71
2023/12/07 01:22:45;;;;;;;0.60;0.60;;;;;;;1.26;90.97;97173.53;29396;237;63004;-52
2023/12/07 01:23:16;;;;;;;0.60;0.60;;;;;;;1.25;91.05;97174.59;29396;281;63009;-53
2023/12/07 01:23:47;;;;;;;0.60;0.60;;;;;;;1.25;91.00;97177.25;29397;218;63004;-70
2023/12/07 01:24:18;;;;;;;0.70;0.70;;;;;;;1.25;90.97;97173.75;29397;264;63009;-53
2023/12/07 01:24:50;;;;;;;0.70;0.70;;;;;;;1.25;91.12;97177.25;29396;213;64017;-53
2023/12/07 01:25:21;;;;;;;0.60;0.60;;;;;;;1.25;91.27;97179.94;29397;201;63008;-52
2023/12/07 01:25:52;;;;;;;0.60;0.60;;;;;;;1.23;91.01;97171.31;29397;266;63001;-53
2023/12/07 01:26:24;;;;;;;0.70;0.70;;;;;;;1.24;91.07;97182.81;29397;208;63018;-52
2023/12/07 01:26:56;;;;;;;0.70;0.70;;;;;;;1.29;91.07;97175.75;29397;213;63005;-53
2023/12/07 01:27:30;;;;;;;0.60;0.60;;;;;;;1.31;90.59;97181.69;29396;318;64009;-52
2023/12/07 01:28:02;;;;;;;0.60;0.60;;;;;;;1.31;90.33;97179.03;29397;236;63005;-53
2023/12/07 01:28:33;;;;;;;0.60;0.60;;;;;;;1.30;89.55;97182.75;29397;224;63009;-53
2023/12/07 01:29:05;;;;;;;0.70;0.70;;;;;;;1.30;89.83;97180.06;29397;215;63012;-53
2023/12/07 01:29:36;;;;;;;0.70;0.70;;;;;;;1.29;90.09;97181.09;29397;208;63009;-53
2023/12/07 01:30:08;;;;;;;0.65;0.65;;;;;;;1.28;90.35;97182.16;29397;266;63004;-52
2023/12/07 01:30:40;;;;;;;0.70;0.70;;;;;;;1.25;90.39;97174.59;29397;276;63009;-53
2023/12/07 01:31:11;;;;;;;0.70;0.70;;;;;;;1.27;90.65;97182.38;29397;205;63004;-53
2023/12/07 01:31:42;;;;;;;0.65;0.65;;;;;;;1.27;90.50;97180.53;29397;199;63009;-52
2023/12/07 01:32:14;;;;;;;0.70;0.70;;;;;;;1.29;90.64;97180.28;29397;217;63004;-53
2023/12/07 01:32:45;;;;;;;0.60;0.60;;;;;;;1.29;90.54;97183.78;29396;379;64008;-52
2023/12/07 01:33:17;;;;;;;0.60;0.60;;;;;;;1.29;90.49;97173.09;29397;216;63004;-53
2023/12/07 01:33:49;;;;;;;0.60;0.60;;;;;;;1.28;90.17;97181.34;29397;213;63009;-52
2023/12/07 01:34:20;;;;;;;0.60;0.60;;;;;;;1.27;90.44;97172.50;29397;236;63005;-53
2023/12/07 01:34:53;;;;;;;0.60;0.60;;;;;;;1.27;90.47;97177.84;29397;229;63009;-52
2023/12/07 01:35:24;;;;;;;0.70;0.70;;;;;;;1.27;90.62;97177.03;29397;286;63005;-53
2023/12/07 01:35:55;;;;;;;0.60;0.60;;;;;;;1.27;90.52;97177.84;29397;215;63013;-53
2023/12/07 01:36:27;;;;;;;0.70;0.70;;;;;;;1.27;90.59;97174.34;29397;219;63005;-52
2023/12/07 01:36:58;;;;;;;0.70;0.70;;;;;;;1.24;90.64;97178.28;29397;224;63015;-53
2023/12/07 01:37:30;;;;;;;0.70;0.70;;;;;;;1.24;90.82;97175.63;29396;229;63003;-53
2023/12/07 01:38:01;;;;;;;0.70;0.70;;;;;;;1.25;90.90;97177.25;29395;206;64009;-53
2023/12/07 01:38:33;;;;;;;0.62;0.62;;;;;;;1.26;90.93;97175.41;29397;239;63004;-53
2023/12/07 01:39:06;;;;;;;0.60;0.60;;;;;;;1.26;90.87;97172.72;29396;214;63009;-53
2023/12/07 01:39:38;;;;;;;0.60;0.60;;;;;;;1.27;91.15;97177.84;29396;213;63004;-53
2023/12/07 01:40:10;;;;;;;0.60;0.60;;;;;;;1.27;91.17;97177.84;29396;326;63025;-53
2023/12/07 01:40:42;;;;;;;0.70;0.70;;;;;;;1.26;91.11;97175.41;29396;214;63004;-52
2023/12/07 01:41:13;;;;;;;0.60;0.60;;;;;;;1.24;91.05;97177.47;29396;209;63009;-53
2023/12/07 01:41:45;;;;;;;0.60;0.60;;;;;;;1.25;91.30;97181.78;29396;207;63005;-53
2023/12/07 01:42:16;;;;;;;0.60;0.60;;;;;;;1.23;91.51;97181.19;29396;259;63024;-53
2023/12/07 01:42:53;;;;;;;0.70;0.70;;;;;;;1.24;91.75;97178.28;29395;234;64019;-53
2023/12/07 01:43:24;;;;;;;0.68;0.68;;;;;;;1.26;91.84;97181.56;29396;203;63009;-53
2023/12/07 01:43:55;;;;;;;0.60;0.60;;;;;;;1.26;91.60;97176.22;29396;210;63008;-53
2023/12/07 01:44:27;;;;;;;0.65;0.65;;;;;;;1.26;91.24;97184.22;29396;218;63009;-53
2023/12/07 01:45:01;;;;;;;0.60;0.60;;;;;;;1.26;91.24;97192.25;29396;265;63017;-54
2023/12/07 01:45:36;;;;;;;0.60;0.60;;;;;;;1.24;90.99;97180.97;29396;299;63026;-53
2023/12/07 01:46:07;;;;;;;0.60;0.60;;;;;;;1.26;91.33;97186.91;29396;216;63004;-53
2023/12/07 01:46:39;;;;;;;0.65;0.65;;;;;;;1.28;91.39;97189.34;29396;202;63009;-51
2023/12/07 01:47:10;;;;;;;0.70;0.70;;;;;;;1.29;91.44;97185.62;29396;216;63004;-52
2023/12/07 01:47:41;;;;;;;0.68;0.68;;;;;;;1.29;91.35;97185.62;29396;231;63008;-72
2023/12/07 01:48:14;;;;;;;0.60;0.60;;;;;;;1.30;91.30;97193.44;29395;254;64004;-53
2023/12/07 01:48:49;;;;;;;0.70;0.70;;;;;;;1.30;91.44;97189.94;29396;307;63009;-53
2023/12/07 01:49:20;;;;;;;0.70;0.70;;;;;;;1.28;91.57;97184.81;29396;245;63005;-53
2023/12/07 01:49:52;;;;;;;0.70;0.70;;;;;;;1.29;91.53;97182.97;29396;236;63009;-53
2023/12/07 01:50:24;;;;;;;0.60;0.60;;;;;;;1.29;91.50;97191.81;29396;214;63005;-54
2023/12/07 01:50:57;;;;;;;0.70;0.70;;;;;;;1.28;91.45;97187.50;29396;213;63025;-53
2023/12/07 01:51:29;;;;;;;0.68;0.68;;;;;;;1.31;91.75;97200.41;29395;228;64005;-53
2023/12/07 01:52:04;;;;;;;0.70;0.70;;;;;;;1.32;91.48;97196.69;29396;240;63009;-52
2023/12/07 01:52:39;;;;;;;0.60;0.60;;;;;;;1.32;91.47;97191.34;29396;308;63004;-53
2023/12/07 01:53:12;;;;;;;0.70;0.70;;;;;;;1.31;91.29;97187.03;29396;197;63009;-52
2023/12/07 01:53:44;;;;;;;0.60;0.60;;;;;;;1.31;91.24;97187.03;29396;248;63004;-53
2023/12/07 01:54:16;;;;;;;0.60;0.60;;;;;;;1.30;90.91;97188.09;29396;199;63009;-52
2023/12/07 01:54:48;;;;;;;0.70;0.70;;;;;;;1.30;91.09;97185.41;29396;233;63004;-53
2023/12/07 01:55:20;;;;;;;0.60;0.60;;;;;;;1.32;91.25;97190.53;29396;204;63008;-53
2023/12/07 01:55:52;;;;;;;0.70;0.70;;;;;;;1.29;91.11;97181.09;29396;239;63004;-54
2023/12/07 01:56:26;;;;;;;0.60;0.60;;;;;;;1.27;91.07;97193.88;29396;198;63009;-53
2023/12/07 01:56:57;;;;;;;0.70;0.70;;;;;;;1.27;91.19;97188.53;29395;257;64005;-53
2023/12/07 01:57:29;;;;;;;0.60;0.60;;;;;;;1.26;91.35;97189.59;29396;214;63009;-52
2023/12/07 01:58:01;;;;;;;0.70;0.70;;;;;;;1.26;91.32;97191.44;29396;209;63005;-53
2023/12/07 01:58:32;;;;;;;0.60;0.60;;;;;;;1.24;91.32;97182.81;29396;388;63009;-52
2023/12/07 01:59:05;;;;;;;0.60;0.60;;;;;;;1.23;91.55;97192.69;29397;220;63005;-70
2023/12/07 01:59:36;;;;;;;0.60;0.60;;;;;;;1.22;91.68;97191.06;29396;257;63009;-71
2023/12/07 02:00:09;;;;;;;0.60;0.60;;;;;;;1.21;91.88;97200.12;29396;386;63004;-53
2023/12/07 02:00:40;;;;;;;0.65;0.65;;;;;;;1.19;91.97;97186.19;29396;328;63018;-52
2023/12/07 02:01:13;;;;;;;0.60;0.60;;;;;;;1.17;92.26;97193.59;29396;198;63004;-53
2023/12/07 02:01:45;;;;;;;0.60;0.60;;;;;;;1.17;92.12;97193.59;29396;274;63009;-53
2023/12/07 02:02:16;;;;;;;0.70;0.70;;;;;;;1.16;92.44;97194.63;29395;210;64004;-52
2023/12/07 02:02:48;;;;;;;0.60;0.60;;;;;;;1.16;92.49;97191.97;29396;227;63009;-52
2023/12/07 02:03:20;;;;;;;0.60;0.60;;;;;;;1.15;92.64;97193.00;29396;309;63005;-53
2023/12/07 02:03:52;;;;;;;0.60;0.60;;;;;;;1.16;92.57;97193.81;29395;235;64009;-53
2023/12/07 02:04:23;;;;;;;0.70;0.70;;;;;;;1.17;92.70;97198.94;29396;244;63005;-53
2023/12/07 02:04:55;;;;;;;0.62;0.62;;;;;;;1.16;92.32;97191.97;29396;211;63009;-53
2023/12/07 02:05:27;;;;;;;0.60;0.60;;;;;;;1.16;92.44;97197.31;29396;222;63005;-53
2023/12/07 02:05:58;;;;;;;0.60;0.60;;;;;;;1.16;92.49;97197.31;29396;214;63009;-52
2023/12/07 02:06:30;;;;;;;0.60;0.60;;;;;;;1.18;92.73;97194.41;29396;202;63005;-53
2023/12/07 02:07:03;;;;;;;0.62;0.62;;;;;;;1.17;92.25;97198.94;29396;213;63009;-53
2023/12/07 02:07:35;;;;;;;0.60;0.60;;;;;;;1.16;92.59;97199.16;29396;210;63004;-53
2023/12/07 02:08:06;;;;;;;0.70;0.70;;;;;;;1.14;92.42;97198.56;29396;310;63009;-53
2023/12/07 02:08:41;;;;;;;0.60;0.60;;;;;;;1.12;92.55;97196.13;29396;230;63016;-53
2023/12/07 02:09:12;;;;;;;0.60;0.60;;;;;;;1.11;92.65;97202.50;29395;210;64009;-53
2023/12/07 02:09:44;;;;;;;0.60;0.60;;;;;;;1.12;92.85;97196.13;29396;255;63004;-53
2023/12/07 02:10:15;;;;;;;0.70;0.70;;;;;;;1.11;92.98;97199.84;29396;223;63009;-53
2023/12/07 02:10:46;;;;;;;0.70;0.70;;;;;;;1.11;93.12;97197.16;29396;250;63005;-53
2023/12/07 02:11:18;;;;;;;0.70;0.70;;;;;;;1.11;92.99;97199.84;29396;296;63009;-52
2023/12/07 02:11:50;;;;;;;0.60;0.60;;;;;;;1.11;93.40;97199.84;29396;206;63005;-53
2023/12/07 02:12:21;;;;;;;0.60;0.60;;;;;;;1.12;93.19;97195.31;29396;306;63009;-53
2023/12/07 02:12:54;;;;;;;0.62;0.62;;;;;;;1.11;93.39;97197.16;29396;387;63005;-53
2023/12/07 02:13:25;;;;;;;0.60;0.60;;;;;;;1.11;93.02;97197.16;29396;209;63018;-53
2023/12/07 02:13:57;;;;;;;0.60;0.60;;;;;;;1.10;93.19;97192.03;29396;220;63005;-53
2023/12/07 02:14:29;;;;;;;0.60;0.60;;;;;;;1.07;93.04;97187.97;29395;202;64009;-53
2023/12/07 02:15:03;;;;;;;0.70;0.70;;;;;;;1.09;93.33;97190.41;29396;223;63011;-53
2023/12/07 02:15:35;;;;;;;0.60;0.60;;;;;;;1.08;93.40;97199.47;29396;243;63009;-52
2023/12/07 02:16:24;;;;;;;0.60;0.60;;;;;;;1.09;93.47;97183.22;29396;220;63004;-54
2023/12/07 02:17:03;;;;;;;0.60;0.60;;;;;;;1.13;93.40;97181.72;29396;219;63009;-53
2023/12/07 02:17:55;;;;;;;0.65;0.65;;;;;;;1.13;93.40;97187.06;29378;225;125004;-52
2023/12/07 02:19:02;;;;;;;0.68;0.68;;;;;;;1.14;93.25;97186.03;29396;277;63009;-53
2023/12/07 02:20:21;;;;;;;0.70;0.70;;;;;;;1.14;93.17;97183.34;29395;272;64005;-53
2023/12/07 02:21:17;;;;;;;0.70;0.70;;;;;;;1.16;93.20;97181.28;29396;202;63010;-54
2023/12/07 02:21:59;;;;;;;0.60;0.60;;;;;;;1.19;93.08;97188.84;29396;249;63011;-53
2023/12/07 02:22:55;;;;;;;0.70;0.70;;;;;;;1.20;93.06;97181.66;29396;280;63009;-53
2023/12/07 02:23:32;;;;;;;0.70;0.70;;;;;;;1.20;92.77;97182.47;29396;202;63004;-52
2023/12/07 02:24:06;;;;;;;0.70;0.70;;;;;;;1.21;93.02;97183.28;29396;239;63009;-52
2023/12/07 02:24:42;;;;;;;0.70;0.70;;;;;;;1.21;92.83;97175.25;29395;213;64004;-70
2023/12/07 02:25:18;;;;;;;0.60;0.60;;;;;;;1.22;93.03;97177.72;29396;207;63008;-53
2023/12/07 02:25:57;;;;;;;0.70;0.70;;;;;;;1.24;92.93;97180.16;29396;219;63005;-52
2023/12/07 02:26:37;;;;;;;0.70;0.70;;;;;;;1.22;92.91;97180.37;29397;204;63009;-52
2023/12/07 02:27:08;;;;;;;0.60;0.60;;;;;;;1.20;93.14;97187.00;29397;202;63005;-71
2023/12/07 02:27:41;;;;;;;0.70;0.70;;;;;;;1.15;93.51;97179.66;29395;203;64009;-52
2023/12/07 02:28:13;;;;;;;0.70;0.70;;;;;;;1.13;93.88;97188.94;29397;228;63005;-53
2023/12/07 02:28:44;;;;;;;0.70;0.70;;;;;;;1.11;93.72;97189.16;29397;197;63009;-53
2023/12/07 02:29:15;;;;;;;0.60;0.60;;;;;;;1.10;93.93;97192.88;29395;210;63005;-53
2023/12/07 02:29:46;;;;;;;0.60;0.60;;;;;;;1.10;93.81;97190.19;29394;265;64009;-53
2023/12/07 02:30:17;;;;;;;0.60;0.60;;;;;;;1.13;93.96;97187.06;29395;241;63004;-53
2023/12/07 02:30:49;;;;;;;0.70;0.70;;;;;;;1.12;93.53;97190.78;29395;219;63009;-52
2023/12/07 02:31:20;;;;;;;0.60;0.60;;;;;;;1.12;93.42;97190.78;29395;209;63004;-53
2023/12/07 02:31:51;;;;;;;0.70;0.70;;;;;;;1.10;93.32;97187.53;29395;215;63009;-52
2023/12/07 02:32:22;;;;;;;0.70;0.70;;;;;;;1.09;93.32;97190.41;29395;233;63004;-53
2023/12/07 02:32:55;;;;;;;0.70;0.70;;;;;;;1.07;93.40;97185.28;29395;237;63018;-52
2023/12/07 02:33:26;;;;;;;0.70;0.70;;;;;;;1.06;93.48;97186.34;29395;352;63005;-53
2023/12/07 02:33:58;;;;;;;0.70;0.70;;;;;;;1.07;93.71;97192.50;29395;213;63009;-53
2023/12/07 02:34:29;;;;;;;0.70;0.70;;;;;;;1.05;93.79;97189.22;29395;210;63005;-53
2023/12/07 02:35:02;;;;;;;0.70;0.70;;;;;;;1.03;93.78;97188.66;29393;281;64009;-53
2023/12/07 02:35:35;;;;;;;0.60;0.60;;;;;;;1.02;93.93;97185.19;29395;226;63007;-53
2023/12/07 02:36:07;;;;;;;0.60;0.60;;;;;;;1.01;94.04;97191.56;29395;234;63009;-53
2023/12/07 02:36:41;;;;;;;0.60;0.60;;;;;;;0.99;94.19;97196.31;29395;205;63005;-71
2023/12/07 02:37:12;;;;;;;0.60;0.60;;;;;;;0.98;94.44;97184.00;29395;224;63004;-53